首页
METAR-TAF:

METAR-TAF

机场 :

Valley, 威尔士

纬度: 53-15N, 经度: 004-32W, 海拔: 1米

当前天气观测

该预报发布于36分钟前的19:50 UTC
风速9节,风向西北
温度 12°C
湿度 82%
气压 1003 hPa
能见度10公里或以上

METAR: EGOV 061950Z AUTO 31009KT 9999 OVC023/// 12/09 Q1003

时间: 21:26 (20:26 UTC)


TAF: 丢失

超过4000个机场的气象观测和天气预报(METAR&TAF报告)。

可查询的气象台以黄色和红色小点在地图上表示。

将鼠标移到小点上方,可查看气象台名称。

然后点击查看天气观测和预报。

如需切换地图:点击带黑十字的绿色按钮放大地图;点击带横线的绿色按钮缩小地图;或者点击绿色箭头查看邻近地区的地图。


METAR-TAF: